WXM80 ListenWXM80 Stop

You find our weather info also at:

UK Metoffice

WeatherCloud

Weather Underground

Northeastern Weather Network

AWEKAS

Citizen Weather Observer Program (CWOP)

HAMweather, WeatherForYou, PWS Weather


Weather Underground History page Text

Daily Summary for Nil La, TWC- Units:  Both    English   Metric
« Previous Day
Next Day »
Daily Weekly Monthly Yearly Custom
  High: Low: Average:
Temperature: 40.1 °F /  4.5 °C 34.9 °F /  1.6 °C 37.1 °F /  2.8 °C
Dew Point: 32.5 °F /  0.3 °C 25.6 °F /  -3.6 °C 28.5 °F /  -1.9 °C
Humidity: 81 % 64 % 71 %
Wind Speed: 15.7 mph /  25.3 km/h - 9.9 mph /  15.9 km/h
Wind Gust: 31.1 mph /  50 km/h - -
Wind:- - West
Pressure: 29.55 in /  1000.6 hPa 29.46 in /  997.5 hPa -
Precipitation: 0.00 in /  0 mm    
Historical Graphs
 
 
Tabular Data for Nil La, TWC-
Time Temperature Dew Point Pressure Wind Wind Speed Wind Gust Humidity Rainfall Rate (Hourly)
00:04 40.1 °F /  4.5 °C 32.5 °F /  0.3 °C 29.46 in /  997.5 hPa WNW 7.3 mph /  11.7 km/h 20.7 mph /  33.3 km/h 74 % 0.00 in /  0 mm
00:09 40.0 °F /  4.4 °C 32.4 °F /  0.2 °C 29.46 in /  997.5 hPa WNW 9.2 mph /  14.8 km/h 15.0 mph /  24.1 km/h 74 % 0.00 in /  0 mm
00:14 39.8 °F /  4.3 °C 31.8 °F /  -0.1 °C 29.46 in /  997.5 hPa SE 6.1 mph /  9.8 km/h 18.4 mph /  29.6 km/h 73 % 0.00 in /  0 mm
00:19 39.8 °F /  4.3 °C 32.2 °F /  0.1 °C 29.46 in /  997.5 hPa West 10.2 mph /  16.4 km/h 15.0 mph /  24.1 km/h 74 % 0.00 in /  0 mm
00:24 39.7 °F /  4.3 °C 32.1 °F /  0.1 °C 29.46 in /  997.5 hPa WNW 9.0 mph /  14.5 km/h 15.0 mph /  24.1 km/h 74 % 0.00 in /  0 mm
00:29 39.6 °F /  4.2 °C 32.0 °F /  0 °C 29.46 in /  997.5 hPa West 7.1 mph /  11.4 km/h 19.6 mph /  31.5 km/h 74 % 0.00 in /  0 mm
00:34 39.5 °F /  4.2 °C 31.6 °F /  -0.2 °C 29.47 in /  997.9 hPa WSW 9.7 mph /  15.6 km/h 16.1 mph /  25.9 km/h 73 % 0.00 in /  0 mm
00:39 39.4 °F /  4.1 °C 29.7 °F /  -1.3 °C 29.47 in /  997.9 hPa WNW 12.1 mph /  19.5 km/h 21.9 mph /  35.2 km/h 68 % 0.00 in /  0 mm
00:44 39.3 °F /  4.1 °C 28.1 °F /  -2.2 °C 29.47 in /  997.9 hPa WNW 12.1 mph /  19.5 km/h 21.9 mph /  35.2 km/h 64 % 0.00 in /  0 mm
00:49 39.3 °F /  4.1 °C 28.5 °F /  -1.9 °C 29.48 in /  998.2 hPa WSW 7.3 mph /  11.7 km/h 11.5 mph /  18.5 km/h 65 % 0.00 in /  0 mm
00:54 39.3 °F /  4.1 °C 28.5 °F /  -1.9 °C 29.48 in /  998.2 hPa WNW 8.8 mph /  14.2 km/h 18.4 mph /  29.6 km/h 65 % 0.00 in /  0 mm
00:59 39.3 °F /  4.1 °C 28.9 °F /  -1.7 °C 29.48 in /  998.2 hPa WNW 8.1 mph /  13 km/h 20.7 mph /  33.3 km/h 66 % 0.00 in /  0 mm
01:04 39.3 °F /  4.1 °C 29.3 °F /  -1.5 °C 29.48 in /  998.2 hPa West 10.6 mph /  17.1 km/h 19.6 mph /  31.5 km/h 67 % 0.00 in /  0 mm
01:09 39.2 °F /  4 °C 28.8 °F /  -1.8 °C 29.48 in /  998.2 hPa WNW 9.9 mph /  15.9 km/h 18.4 mph /  29.6 km/h 66 % 0.00 in /  0 mm
01:14 39.0 °F /  3.9 °C 28.6 °F /  -1.9 °C 29.49 in /  998.5 hPa WNW 10.5 mph /  16.9 km/h 13.8 mph /  22.2 km/h 66 % 0.00 in /  0 mm
01:19 38.8 °F /  3.8 °C 28.4 °F /  -2 °C 29.48 in /  998.2 hPa West 13.5 mph /  21.7 km/h 27.6 mph /  44.4 km/h 66 % 0.00 in /  0 mm
01:24 38.6 °F /  3.7 °C 28.6 °F /  -1.9 °C 29.49 in /  998.5 hPa SW 7.9 mph /  12.7 km/h 17.0 mph /  27.4 km/h 67 % 0.00 in /  0 mm
01:29 38.4 °F /  3.6 °C 28.0 °F /  -2.2 °C 29.49 in /  998.5 hPa West 11.2 mph /  18 km/h 21.9 mph /  35.2 km/h 66 % 0.00 in /  0 mm
01:34 38.1 °F /  3.4 °C 28.1 °F /  -2.2 °C 29.49 in /  998.5 hPa WNW 15.7 mph /  25.3 km/h 19.6 mph /  31.5 km/h 67 % 0.00 in /  0 mm
01:39 38.0 °F /  3.3 °C 28.4 °F /  -2 °C 29.50 in /  998.9 hPa WNW 7.1 mph /  11.4 km/h 15.0 mph /  24.1 km/h 68 % 0.00 in /  0 mm
01:44 37.7 °F /  3.2 °C 28.1 °F /  -2.2 °C 29.50 in /  998.9 hPa WNW 14.4 mph /  23.2 km/h 25.3 mph /  40.7 km/h 68 % 0.00 in /  0 mm
01:49 37.4 °F /  3 °C 28.2 °F /  -2.1 °C 29.50 in /  998.9 hPa SSW 14.8 mph /  23.8 km/h 17.0 mph /  27.4 km/h 69 % 0.00 in /  0 mm
01:54 37.1 °F /  2.8 °C 28.2 °F /  -2.1 °C 29.50 in /  998.9 hPa NW 12.1 mph /  19.5 km/h 21.9 mph /  35.2 km/h 70 % 0.00 in /  0 mm
01:59 36.9 °F /  2.7 °C 28.7 °F /  -1.8 °C 29.51 in /  999.2 hPa WSW 8.6 mph /  13.8 km/h 16.1 mph /  25.9 km/h 72 % 0.00 in /  0 mm
02:04 36.6 °F /  2.6 °C 29.1 °F /  -1.6 °C 29.51 in /  999.2 hPa WNW 10.9 mph /  17.5 km/h 16.1 mph /  25.9 km/h 74 % 0.00 in /  0 mm
02:09 36.2 °F /  2.3 °C 29.0 °F /  -1.7 °C 29.51 in /  999.2 hPa West 13.0 mph /  20.9 km/h 18.4 mph /  29.6 km/h 75 % 0.00 in /  0 mm
02:14 35.9 °F /  2.2 °C 29.1 °F /  -1.6 °C 29.52 in /  999.5 hPa West 8.4 mph /  13.5 km/h 23.0 mph /  37 km/h 76 % 0.00 in /  0 mm
02:19 35.7 °F /  2.1 °C 29.2 °F /  -1.6 °C 29.52 in /  999.5 hPa West 10.2 mph /  16.4 km/h 15.0 mph /  24.1 km/h 77 % 0.00 in /  0 mm
02:24 35.5 °F /  1.9 °C 29.3 °F /  -1.5 °C 29.52 in /  999.5 hPa WNW 12.9 mph /  20.8 km/h 18.4 mph /  29.6 km/h 78 % 0.00 in /  0 mm
02:29 35.2 °F /  1.8 °C 29.6 °F /  -1.3 °C 29.52 in /  999.5 hPa West 8.5 mph /  13.7 km/h 19.6 mph /  31.5 km/h 80 % 0.00 in /  0 mm
02:34 35.1 °F /  1.7 °C 29.9 °F /  -1.2 °C 29.52 in /  999.5 hPa West 9.2 mph /  14.8 km/h 21.0 mph /  33.8 km/h 81 % 0.00 in /  0 mm
02:39 35.0 °F /  1.7 °C 29.5 °F /  -1.4 °C 29.52 in /  999.5 hPa SSW 4.9 mph /  7.9 km/h 12.7 mph /  20.4 km/h 80 % 0.00 in /  0 mm
02:44 34.9 °F /  1.6 °C 29.0 °F /  -1.7 °C 29.53 in /  999.9 hPa SSW 11.0 mph /  17.7 km/h 17.0 mph /  27.4 km/h 79 % 0.00 in /  0 mm
02:49 35.0 °F /  1.7 °C 28.8 °F /  -1.8 °C 29.53 in /  999.9 hPa WSW 6.2 mph /  10 km/h 15.0 mph /  24.1 km/h 78 % 0.00 in /  0 mm
02:54 35.1 °F /  1.7 °C 28.3 °F /  -2.1 °C 29.53 in /  999.9 hPa West 11.5 mph /  18.5 km/h 16.1 mph /  25.9 km/h 76 % 0.00 in /  0 mm
02:59 35.1 °F /  1.7 °C 28.0 °F /  -2.2 °C 29.52 in /  999.5 hPa WNW 8.4 mph /  13.5 km/h 19.0 mph /  30.6 km/h 75 % 0.00 in /  0 mm
03:04 35.2 °F /  1.8 °C 27.4 °F /  -2.6 °C 29.53 in /  999.9 hPa SW 14.9 mph /  24 km/h 27.6 mph /  44.4 km/h 73 % 0.00 in /  0 mm
03:09 35.3 °F /  1.8 °C 26.8 °F /  -2.9 °C 29.53 in /  999.9 hPa SW 6.0 mph /  9.7 km/h 19.6 mph /  31.5 km/h 71 % 0.00 in /  0 mm
03:14 35.3 °F /  1.8 °C 26.5 °F /  -3.1 °C 29.53 in /  999.9 hPa WSW 11.3 mph /  18.2 km/h 24.0 mph /  38.6 km/h 70 % 0.00 in /  0 mm
03:19 35.4 °F /  1.9 °C 26.2 °F /  -3.2 °C 29.53 in /  999.9 hPa WSW 11.4 mph /  18.3 km/h 20.7 mph /  33.3 km/h 69 % 0.00 in /  0 mm
03:24 35.4 °F /  1.9 °C 26.2 °F /  -3.2 °C 29.53 in /  999.9 hPa West 11.6 mph /  18.7 km/h 18.4 mph /  29.6 km/h 69 % 0.00 in /  0 mm
03:29 35.5 °F /  1.9 °C 26.3 °F /  -3.2 °C 29.53 in /  999.9 hPa NW 11.1 mph /  17.9 km/h 23.0 mph /  37 km/h 69 % 0.00 in /  0 mm
03:34 35.5 °F /  1.9 °C 26.3 °F /  -3.2 °C 29.54 in /  1000.2 hPa West 8.8 mph /  14.2 km/h 14.0 mph /  22.5 km/h 69 % 0.00 in /  0 mm
03:39 35.5 °F /  1.9 °C 26.3 °F /  -3.2 °C 29.54 in /  1000.2 hPa NW 10.2 mph /  16.4 km/h 16.0 mph /  25.7 km/h 69 % 0.00 in /  0 mm
03:44 35.5 °F /  1.9 °C 26.0 °F /  -3.3 °C 29.54 in /  1000.2 hPa WNW 5.2 mph /  8.4 km/h 11.5 mph /  18.5 km/h 68 % 0.00 in /  0 mm
03:49 35.5 °F /  1.9 °C 26.0 °F /  -3.3 °C 29.54 in /  1000.2 hPa WNW 7.1 mph /  11.4 km/h 19.6 mph /  31.5 km/h 68 % 0.00 in /  0 mm
03:54 35.4 °F /  1.9 °C 25.9 °F /  -3.4 °C 29.54 in /  1000.2 hPa NW 10.8 mph /  17.4 km/h 23.0 mph /  37 km/h 68 % 0.00 in /  0 mm
03:59 35.4 °F /  1.9 °C 26.2 °F /  -3.2 °C 29.55 in /  1000.6 hPa NW 8.2 mph /  13.2 km/h 10.4 mph /  16.7 km/h 69 % 0.00 in /  0 mm
04:04 35.2 °F /  1.8 °C 25.7 °F /  -3.5 °C 29.55 in /  1000.6 hPa West 11.0 mph /  17.7 km/h 31.1 mph /  50 km/h 68 % 0.00 in /  0 mm
04:09 35.1 °F /  1.7 °C 25.6 °F /  -3.6 °C 29.55 in /  1000.6 hPa West 9.3 mph /  15 km/h 21.9 mph /  35.2 km/h 68 % 0.00 in /  0 mm
Crab Meadow Weather
Compliments of Weather Underground - 1.5 mb

Script developed by  Jim McMurry - jmcmurry@mwt.net Adapted for the template by  Wim van der Kuil - Leuven-Template.eu

Recycling: In 2006, a record 53.4 percent of the paper consumed in the U.S. was recovered for recycling. Americans recovered an extraordinary 53.5 million tons, averaging 360 pounds per person.